Main page
METAR-TAF:

METAR-TAF

Airports :

Salgado Filho International Airport

Porto Alegre, Rio Grande do Sul, Brazil

latitude: 30-00S, longitude: 051-11W, elevation: 3 m

Current weather observation

The report was made 51 minutes ago, at 07:00 UTC
Wind 3 kt from the West
Temperature 18°C
Humidity 100%
Pressure 1011 hPa
Visibility 10 km or more
no clouds below 1500 m and no cumulonimbus

METAR: SBPA 200700Z 28003KT CAVOK 18/18 Q1011

Time: 04:51 (07:51 UTC)

Forecast

The report was made 4 hours and 51 minutes ago, at 03:00 UTC
Forecast valid from 20 at 06 UTC to 21 at 06 UTC
Wind 5 kt from the Northwest
Visibility 10 km or more
no clouds below 1500 m and no cumulonimbus
Becoming
from 20 at 16 UTC to 20 at 18 UTC
Visibility 10 km or more
Scattered clouds at a height of 3500 ft

TAF: SBPA 200300Z 2006/2106 31005KT CAVOK TN18/2009Z TX26/2016Z BECMG 2016/2018 9999 SCT035 RMK PER

Weather observations and forecasts of more than 4000 airports (METAR and TAF reports).

The available stations are represented by yellow and red dots on the map.

Hover mouse over dot to see the name of the station.

Then click to see weather observations and forecasts.

To change the map : click on the green buttons with a black cross to zoom in, on the green button with a dash to zoom out, or on the green arrows for adjacent maps.


METAR-TAF: